Time;durP1;ratioP1;P1;durP2;ratioP2;P2;SDS_P1;SDS_P2;PMS_P1;PMS_P2;Temp;Humidity;BMP_temperature;BMP_pressure;BME280_temperature;BME280_humidity;BME280_pressure;Samples;Min_cycle;Max_cycle;Signal;HPM_P1;HPM_P2
2023/07/17 00:00:36;;;;;;;4.63;2.47;;;17.90;99.90;;;;;;5035558;28;20118;-53
2023/07/17 00:03:04;;;;;;;7.50;2.22;;;18.00;99.90;;;;;;5035523;28;20703;-53
2023/07/17 00:05:30;;;;;;;4.53;1.85;;;18.10;99.90;;;;;;5035562;28;20121;-52
2023/07/17 00:07:55;;;;;;;4.88;2.00;;;18.30;99.90;;;;;;5034952;28;20065;-54
2023/07/17 00:10:21;;;;;;;3.25;1.70;;;18.40;99.90;;;;;;5036049;28;20049;-53
2023/07/17 00:12:46;;;;;;;4.05;1.90;;;18.40;99.90;;;;;;5035053;28;20025;-51
2023/07/17 00:15:12;;;;;;;4.13;1.65;;;18.30;99.90;;;;;;5035157;28;20037;-51
2023/07/17 00:17:38;;;;;;;4.70;1.85;;;18.20;99.90;;;;;;5034603;28;20076;-51
2023/07/17 00:20:11;;;;;;;3.95;1.98;;;18.20;99.90;;;;;;5035502;28;20034;-50
2023/07/17 00:22:37;;;;;;;3.85;2.00;;;18.10;99.90;;;;;;5035394;28;20032;-52
2023/07/17 00:25:04;;;;;;;5.72;2.17;;;18.10;99.90;;;;;;5035345;28;20389;-53
2023/07/17 00:27:30;;;;;;;4.47;2.00;;;18.00;99.90;;;;;;5036131;28;20484;-50
2023/07/17 00:29:56;;;;;;;5.40;1.98;;;18.00;99.90;;;;;;5035350;28;20473;-53
2023/07/17 00:32:22;;;;;;;7.22;2.28;;;18.00;99.90;;;;;;5035371;28;20038;-52
2023/07/17 00:34:47;;;;;;;6.68;2.42;;;18.00;99.90;;;;;;5035462;28;20029;-51
2023/07/17 00:37:14;;;;;;;5.72;2.20;;;17.90;99.90;;;;;;5034858;28;20025;-52
2023/07/17 00:39:39;;;;;;;5.70;2.22;;;17.80;99.90;;;;;;5034174;28;20025;-51
2023/07/17 00:42:05;;;;;;;7.47;2.20;;;17.80;99.90;;;;;;5034004;28;20083;-52
2023/07/17 00:44:31;;;;;;;5.63;2.08;;;17.70;99.90;;;;;;5033989;28;20030;-53
2023/07/17 00:46:58;;;;;;;6.00;2.05;;;17.70;99.90;;;;;;5035286;28;20029;-54
2023/07/17 00:49:27;;;;;;;5.95;2.10;;;17.80;99.90;;;;;;5033891;28;20032;-54
2023/07/17 00:51:54;;;;;;;6.63;2.30;;;17.80;99.90;;;;;;5033957;28;20029;-52
2023/07/17 00:54:21;;;;;;;4.93;1.88;;;17.70;99.90;;;;;;5035140;28;20072;-54
2023/07/17 00:56:47;;;;;;;4.80;2.10;;;17.70;99.90;;;;;;5034862;28;20065;-51
2023/07/17 00:59:14;;;;;;;5.07;1.80;;;17.70;99.90;;;;;;5033789;28;20417;-49
2023/07/17 01:01:41;;;;;;;4.35;1.63;;;17.60;99.90;;;;;;5034018;28;20038;-50
2023/07/17 01:04:08;;;;;;;3.88;1.75;;;17.70;99.90;;;;;;5035048;28;20039;-53
2023/07/17 01:06:39;;;;;;;4.72;1.63;;;17.70;99.90;;;;;;5033342;28;20030;-54
2023/07/17 01:09:06;;;;;;;6.78;2.42;;;17.60;99.90;;;;;;5034173;28;20117;-54
2023/07/17 01:11:33;;;;;;;4.10;1.63;;;17.60;99.90;;;;;;5033382;28;20069;-51
2023/07/17 01:13:58;;;;;;;3.45;1.90;;;17.60;99.90;;;;;;5033612;28;20037;-50
2023/07/17 01:16:24;;;;;;;3.30;1.73;;;17.60;99.90;;;;;;5033372;28;20030;-53
2023/07/17 01:18:49;;;;;;;5.47;1.73;;;17.60;99.90;;;;;;5033697;28;20124;-54
2023/07/17 01:21:19;;;;;;;4.60;2.10;;;17.60;99.90;;;;;;5034582;28;20112;-48
2023/07/17 01:23:45;;;;;;;3.17;1.52;;;17.60;99.90;;;;;;5035496;28;20104;-49
2023/07/17 01:26:13;;;;;;;4.13;1.63;;;17.60;99.90;;;;;;5036458;28;20044;-52
2023/07/17 01:28:40;;;;;;;4.20;1.90;;;17.50;99.90;;;;;;5038071;28;20033;-54
2023/07/17 01:31:07;;;;;;;4.25;2.00;;;17.60;99.90;;;;;;5038318;28;20407;-54
2023/07/17 01:33:33;;;;;;;3.65;1.70;;;17.60;99.90;;;;;;5036746;28;20489;-51
2023/07/17 01:36:00;;;;;;;4.03;1.80;;;17.70;99.90;;;;;;5038030;28;20042;-52
2023/07/17 01:38:26;;;;;;;6.05;1.98;;;17.70;99.90;;;;;;5038800;28;20055;-53
2023/07/17 01:40:52;;;;;;;4.13;1.73;;;17.70;99.90;;;;;;5037217;28;20056;-53
2023/07/17 01:43:18;;;;;;;5.10;1.92;;;17.70;99.90;;;;;;5037515;28;20113;-52
2023/07/17 01:45:44;;;;;;;3.42;1.65;;;17.70;99.90;;;;;;5036605;28;20664;-53
2023/07/17 01:48:10;;;;;;;3.35;1.45;;;17.70;99.90;;;;;;5036321;28;20030;-53
2023/07/17 01:50:36;;;;;;;3.42;1.60;;;17.70;99.90;;;;;;5020186;28;20040;-49
2023/07/17 01:53:03;;;;;;;4.47;1.60;;;17.60;99.90;;;;;;5037757;28;20439;-54
2023/07/17 01:55:29;;;;;;;2.95;1.50;;;17.50;99.90;;;;;;5036774;28;20073;-52
2023/07/17 01:57:58;;;;;;;4.03;1.50;;;17.50;99.90;;;;;;5036701;28;20037;-51
2023/07/17 02:00:24;;;;;;;4.03;1.77;;;17.40;99.90;;;;;;5038001;28;20478;-52
2023/07/17 02:02:49;;;;;;;5.18;1.60;;;17.40;99.90;;;;;;5037648;28;20033;-50
2023/07/17 02:05:15;;;;;;;4.53;1.48;;;17.30;99.90;;;;;;5037249;28;20030;-53
2023/07/17 02:07:41;;;;;;;5.18;1.42;;;17.30;99.90;;;;;;5036151;28;20482;-53
2023/07/17 02:10:07;;;;;;;3.42;1.67;;;17.20;99.90;;;;;;5036444;28;20065;-53
2023/07/17 02:12:33;;;;;;;3.95;1.90;;;17.20;99.90;;;;;;5037481;28;20032;-53
2023/07/17 02:14:59;;;;;;;3.20;1.70;;;17.10;99.90;;;;;;5035580;28;20425;-54
2023/07/17 02:17:25;;;;;;;2.83;1.33;;;17.10;99.90;;;;;;5036341;28;20030;-52
2023/07/17 02:19:50;;;;;;;3.17;1.60;;;17.00;99.90;;;;;;5037613;28;20563;-53
2023/07/17 02:22:16;;;;;;;2.17;1.25;;;17.00;99.90;;;;;;5035297;28;20026;-54
2023/07/17 02:24:42;;;;;;;5.18;1.30;;;16.90;99.90;;;;;;5036931;28;20112;-52
2023/07/17 02:27:07;;;;;;;2.97;1.50;;;17.00;99.90;;;;;;5035302;28;20029;-53
2023/07/17 02:29:33;;;;;;;3.03;1.27;;;16.90;99.90;;;;;;5036918;28;20022;-52
2023/07/17 02:31:59;;;;;;;5.28;1.77;;;16.90;99.90;;;;;;5036640;28;20070;-51
2023/07/17 02:34:25;;;;;;;3.10;1.25;;;16.90;99.90;;;;;;5036626;28;20548;-52
2023/07/17 02:36:53;;;;;;;2.58;1.30;;;16.80;99.90;;;;;;5036909;28;20037;-53
2023/07/17 02:39:18;;;;;;;4.20;1.80;;;16.90;99.90;;;;;;5035882;28;20107;-51
2023/07/17 02:41:44;;;;;;;4.90;1.73;;;16.80;99.90;;;;;;5035343;28;20033;-53
2023/07/17 02:44:09;;;;;;;3.38;1.60;;;16.80;99.90;;;;;;5036781;28;20398;-54
2023/07/17 02:46:35;;;;;;;6.15;1.92;;;16.80;99.90;;;;;;5038447;28;20021;-53
2023/07/17 02:49:01;;;;;;;4.03;1.52;;;16.80;99.90;;;;;;5056786;28;20027;-52
2023/07/17 02:51:27;;;;;;;4.20;1.80;;;16.70;99.90;;;;;;5056551;28;20108;-53
2023/07/17 02:53:53;;;;;;;5.78;1.67;;;16.80;99.90;;;;;;5054941;28;20071;-53
2023/07/17 02:56:19;;;;;;;5.25;1.67;;;16.80;99.90;;;;;;5054729;28;20037;-53
2023/07/17 02:58:48;;;;;;;4.40;1.70;;;16.70;99.90;;;;;;5055024;28;20028;-52
2023/07/17 03:01:14;;;;;;;5.50;1.80;;;16.70;99.90;;;;;;5056602;28;20021;-53
2023/07/17 03:03:40;;;;;;;4.53;1.58;;;16.70;99.90;;;;;;5055088;28;20138;-53
2023/07/17 03:06:06;;;;;;;5.63;1.63;;;16.60;99.90;;;;;;5054609;28;20060;-53
2023/07/17 03:08:31;;;;;;;5.82;2.45;;;16.70;99.90;;;;;;5054862;28;20032;-54
2023/07/17 03:11:01;;;;;;;4.25;2.05;;;16.70;99.90;;;;;;5056307;28;20394;-54
2023/07/17 03:13:26;;;;;;;4.45;1.95;;;16.70;99.90;;;;;;5056252;28;20072;-54
2023/07/17 03:15:55;;;;;;;3.80;1.85;;;16.70;99.90;;;;;;5054691;28;20065;-53
2023/07/17 03:18:20;;;;;;;4.18;1.60;;;16.60;99.90;;;;;;5038311;28;20029;-53
2023/07/17 03:20:46;;;;;;;5.53;1.90;;;16.60;99.90;;;;;;5037497;28;20056;-53
2023/07/17 03:23:11;;;;;;;3.78;1.58;;;16.50;99.90;;;;;;5054222;28;20029;-54
2023/07/17 03:25:41;;;;;;;5.40;1.67;;;16.50;99.90;;;;;;5055878;28;20449;-54
2023/07/17 03:28:06;;;;;;;5.53;1.80;;;16.50;99.90;;;;;;5053037;28;20040;-53
2023/07/17 03:30:32;;;;;;;4.07;1.60;;;16.50;99.90;;;;;;5050757;28;20033;-53
2023/07/17 03:32:58;;;;;;;4.32;1.20;;;16.50;99.90;;;;;;5052070;28;20517;-54
2023/07/17 03:35:23;;;;;;;2.30;1.35;;;16.40;99.90;;;;;;5051922;28;20037;-54
2023/07/17 03:37:50;;;;;;;3.83;1.30;;;16.30;99.90;;;;;;5052210;28;20482;-52
2023/07/17 03:40:15;;;;;;;2.95;1.05;;;16.30;99.90;;;;;;5050696;28;20029;-52
2023/07/17 03:42:41;;;;;;;6.25;1.95;;;16.30;99.90;;;;;;5029282;28;20025;-50
2023/07/17 03:45:07;;;;;;;2.28;1.30;;;16.30;99.90;;;;;;5013355;28;20482;-52
2023/07/17 03:47:36;;;;;;;4.47;1.48;;;16.30;99.90;;;;;;5016144;28;20037;-49
2023/07/17 03:50:02;;;;;;;3.63;1.27;;;16.20;99.90;;;;;;5035298;28;20033;-53
2023/07/17 03:52:29;;;;;;;3.75;1.50;;;16.20;99.90;;;;;;5016561;28;20040;-52
2023/07/17 03:54:54;;;;;;;4.65;1.30;;;16.20;99.90;;;;;;5031073;28;20029;-54
2023/07/17 03:57:21;;;;;;;4.82;1.58;;;16.20;99.90;;;;;;5018999;28;20025;-53
2023/07/17 03:59:56;;;;;;;3.72;1.83;;;16.10;99.90;;;;;;5038553;28;20079;-50
2023/07/17 04:02:41;;;;;;;3.72;1.48;;;16.10;99.90;;;;;;5021249;28;20028;-53
2023/07/17 04:05:11;;;;;;;3.20;1.58;;;16.10;99.90;;;;;;5022238;28;20057;-52
2023/07/17 04:07:37;;;;;;;4.28;1.63;;;16.10;99.90;;;;;;5032250;28;20024;-51
2023/07/17 04:10:03;;;;;;;5.55;1.80;;;16.10;99.90;;;;;;5029650;28;20041;-53
2023/07/17 04:12:29;;;;;;;3.55;1.98;;;16.10;99.90;;;;;;5034646;28;20072;-54
2023/07/17 04:14:56;;;;;;;5.70;1.95;;;16.10;99.90;;;;;;5005604;28;20033;-54
2023/07/17 04:17:21;;;;;;;4.28;2.10;;;16.20;99.90;;;;;;5014166;28;20113;-52
2023/07/17 04:19:47;;;;;;;5.43;2.05;;;16.20;99.90;;;;;;5024012;28;20048;-53
2023/07/17 04:22:13;;;;;;;6.55;2.30;;;16.20;99.90;;;;;;5036721;28;20018;-54
2023/07/17 04:24:38;;;;;;;4.93;1.80;;;16.30;99.90;;;;;;5039293;28;20036;-53
2023/07/17 04:27:04;;;;;;;5.50;1.90;;;16.20;99.90;;;;;;5039270;28;20025;-53
2023/07/17 04:29:30;;;;;;;4.65;2.00;;;16.30;99.90;;;;;;5023657;28;20022;-49
2023/07/17 04:32:00;;;;;;;6.32;2.20;;;16.20;99.90;;;;;;5035751;28;20036;-54
2023/07/17 04:34:25;;;;;;;6.55;2.22;;;16.30;99.90;;;;;;5032201;28;20025;-53
2023/07/17 04:36:51;;;;;;;4.72;1.73;;;16.30;99.90;;;;;;5021414;28;20033;-49
2023/07/17 04:39:17;;;;;;;4.50;1.63;;;16.40;99.90;;;;;;4998299;28;20048;-52
2023/07/17 04:41:43;;;;;;;3.60;1.67;;;16.30;99.90;;;;;;5019413;28;20034;-51
2023/07/17 04:44:12;;;;;;;4.85;1.98;;;16.40;99.90;;;;;;5027346;28;20026;-55
2023/07/17 04:46:38;;;;;;;4.30;1.58;;;16.30;99.90;;;;;;5015526;28;20084;-53
2023/07/17 04:49:04;;;;;;;4.07;1.70;;;16.40;99.90;;;;;;5035096;28;20363;-50
2023/07/17 04:51:31;;;;;;;7.00;1.80;;;16.50;99.90;;;;;;5016835;28;20022;-52
2023/07/17 04:53:57;;;;;;;3.53;1.65;;;16.40;99.90;;;;;;5016381;28;20030;-50
2023/07/17 04:56:23;;;;;;;3.47;1.38;;;16.40;99.90;;;;;;5023923;28;20536;-54
2023/07/17 04:58:49;;;;;;;4.13;1.50;;;16.50;99.90;;;;;;5029464;28;20033;-53
2023/07/17 05:01:15;;;;;;;5.38;1.98;;;16.50;99.90;;;;;;5028205;28;20025;-51
2023/07/17 05:03:41;;;;;;;2.70;1.63;;;16.60;99.90;;;;;;5027157;28;20025;-54
2023/07/17 05:06:07;;;;;;;3.47;1.50;;;16.60;99.90;;;;;;5024822;28;20559;-50
2023/07/17 05:08:33;;;;;;;4.32;1.50;;;16.60;99.90;;;;;;5022529;28;20034;-52
2023/07/17 05:10:59;;;;;;;3.60;1.67;;;16.70;99.90;;;;;;5030884;28;20033;-52
2023/07/17 05:13:30;;;;;;;6.65;1.85;;;16.70;99.90;;;;;;5027405;28;20040;-53
2023/07/17 05:15:58;;;;;;;4.00;1.50;;;16.70;99.90;;;;;;5018234;28;20056;-54
2023/07/17 05:21:28;;;;;;;3.22;1.50;;;16.70;99.90;;;;;;5030703;28;20509;-56
2023/07/17 05:23:55;;;;;;;4.93;1.45;;;16.80;99.90;;;;;;4999113;28;20033;-57
2023/07/17 05:26:20;;;;;;;4.00;1.67;;;16.90;99.90;;;;;;5004402;28;20026;-56
2023/07/17 05:28:48;;;;;;;3.88;1.80;;;16.80;99.90;;;;;;5009757;28;20101;-57
2023/07/17 05:31:14;;;;;;;4.25;1.70;;;16.80;99.90;;;;;;4989060;28;20030;-57
2023/07/17 05:33:40;;;;;;;3.78;1.50;;;16.90;99.90;;;;;;4985867;28;20031;-58
2023/07/17 05:36:06;;;;;;;3.17;1.48;;;16.90;99.90;;;;;;4988099;28;20467;-54
2023/07/17 05:38:32;;;;;;;3.97;1.80;;;17.00;99.90;;;;;;4979716;28;20022;-52
2023/07/17 05:41:02;;;;;;;5.97;1.80;;;17.10;99.90;;;;;;4990398;28;20038;-53
2023/07/17 05:43:32;;;;;;;7.20;2.13;;;17.10;99.90;;;;;;4982395;28;20030;-50
2023/07/17 05:46:07;;;;;;;6.35;2.08;;;17.20;99.90;;;;;;5008994;28;20037;-58
2023/07/17 05:48:33;;;;;;;6.45;2.15;;;17.30;99.90;;;;;;4985364;28;20034;-56
2023/07/17 05:50:59;;;;;;;7.05;2.72;;;17.30;99.90;;;;;;4980194;28;20109;-57
2023/07/17 05:53:25;;;;;;;4.47;1.90;;;17.40;99.90;;;;;;4980272;28;20026;-56
2023/07/17 05:55:52;;;;;;;7.10;1.92;;;17.40;99.90;;;;;;4984843;28;20444;-53
2023/07/17 05:58:18;;;;;;;8.05;2.08;;;17.40;99.90;;;;;;4982167;28;20026;-53
2023/07/17 06:00:45;;;;;;;4.78;2.10;;;17.40;99.90;;;;;;4977820;28;20036;-55
2023/07/17 06:03:11;;;;;;;8.23;2.90;;;17.40;99.90;;;;;;4974205;28;20136;-59
2023/07/17 06:05:40;;;;;;;8.05;2.90;;;17.40;99.90;;;;;;4993937;28;20042;-57
2023/07/17 06:08:08;;;;;;;7.65;2.70;;;17.50;99.90;;;;;;4994037;28;20031;-57
2023/07/17 06:10:34;;;;;;;12.05;4.60;;;17.50;99.90;;;;;;4991175;28;20048;-58
2023/07/17 06:13:00;;;;;;;6.30;3.20;;;17.60;99.90;;;;;;4991379;28;20026;-57
2023/07/17 06:15:26;;;;;;;11.30;4.32;;;17.80;99.90;;;;;;4991481;28;20053;-59
2023/07/17 06:17:52;;;;;;;6.80;3.15;;;17.90;99.90;;;;;;4994483;28;20022;-56
2023/07/17 06:20:19;;;;;;;7.57;2.97;;;18.00;99.90;;;;;;4996783;28;20045;-58
2023/07/17 06:22:45;;;;;;;6.28;2.83;;;18.00;99.90;;;;;;4993696;28;20064;-60
2023/07/17 06:25:10;;;;;;;5.10;2.28;;;18.00;99.90;;;;;;4981763;28;20426;-58
2023/07/17 06:27:36;;;;;;;5.78;2.58;;;18.10;99.90;;;;;;4991217;28;20036;-60
2023/07/17 06:30:02;;;;;;;7.75;2.55;;;18.20;99.90;;;;;;4995428;28;20426;-58
2023/07/17 06:32:28;;;;;;;9.27;2.80;;;18.10;99.90;;;;;;4995109;28;20045;-56
2023/07/17 06:34:54;;;;;;;8.75;2.88;;;18.10;99.90;;;;;;4993779;28;20029;-59
2023/07/17 06:37:19;;;;;;;7.82;2.85;;;18.10;99.90;;;;;;4996123;28;20037;-60
2023/07/17 06:39:45;;;;;;;6.70;2.58;;;18.10;99.90;;;;;;4999240;28;20018;-60
2023/07/17 06:42:10;;;;;;;8.77;3.03;;;18.20;99.90;;;;;;4998740;28;20372;-56
2023/07/17 06:44:36;;;;;;;7.20;2.50;;;18.20;99.90;;;;;;4990909;28;20026;-59
2023/07/17 06:47:02;;;;;;;6.90;2.80;;;18.20;99.90;;;;;;4995006;28;20030;-59
2023/07/17 06:49:28;;;;;;;6.05;2.33;;;18.30;99.90;;;;;;5002960;28;20524;-56
2023/07/17 06:51:53;;;;;;;4.13;1.90;;;18.40;99.90;;;;;;4998491;28;20026;-58
2023/07/17 06:54:19;;;;;;;5.00;1.98;;;18.40;99.90;;;;;;4995037;28;20053;-59
2023/07/17 06:56:45;;;;;;;6.30;2.22;;;18.40;99.90;;;;;;5000191;28;20041;-60
2023/07/17 06:59:11;;;;;;;9.07;2.22;;;18.40;99.90;;;;;;5004287;28;20052;-59
2023/07/17 07:01:36;;;;;;;5.20;2.10;;;18.40;99.90;;;;;;5002428;28;20370;-59
2023/07/17 07:04:02;;;;;;;6.55;2.50;;;18.40;99.90;;;;;;5000231;28;20030;-59
2023/07/17 07:06:28;;;;;;;5.85;2.22;;;18.30;99.90;;;;;;4990587;28;20113;-59
2023/07/17 07:08:53;;;;;;;7.00;2.42;;;18.40;99.90;;;;;;4998000;28;20058;-59
2023/07/17 07:11:19;;;;;;;5.95;2.50;;;18.50;99.90;;;;;;5001644;28;20030;-60
2023/07/17 07:13:45;;;;;;;6.18;2.75;;;18.50;99.90;;;;;;4990163;28;20080;-58
2023/07/17 07:16:12;;;;;;;4.97;2.08;;;18.50;99.90;;;;;;4998458;28;20030;-60
2023/07/17 07:18:38;;;;;;;8.20;2.53;;;18.50;99.90;;;;;;4991411;28;20154;-60
2023/07/17 07:21:04;;;;;;;6.93;2.20;;;18.50;99.90;;;;;;4973698;28;20075;-59
2023/07/17 07:23:29;;;;;;;4.75;2.00;;;18.70;99.90;;;;;;4995720;28;20749;-60
2023/07/17 07:25:55;;;;;;;6.07;2.40;;;18.80;99.90;;;;;;4992460;28;20505;-60
2023/07/17 07:28:24;;;;;;;8.00;2.85;;;18.80;99.90;;;;;;4990252;28;20032;-60
2023/07/17 07:30:57;;;;;;;6.35;2.38;;;18.90;99.90;;;;;;5000604;28;20065;-60
2023/07/17 07:33:24;;;;;;;7.70;2.50;;;19.00;99.90;;;;;;5000336;28;20034;-60
2023/07/17 07:35:50;;;;;;;4.60;1.90;;;19.10;99.90;;;;;;5000277;28;20482;-59
2023/07/17 07:38:15;;;;;;;8.60;2.70;;;19.10;99.90;;;;;;5003814;28;20065;-59
2023/07/17 07:40:41;;;;;;;6.93;2.72;;;19.10;99.90;;;;;;4989771;28;20114;-60
2023/07/17 07:43:06;;;;;;;5.82;2.22;;;19.10;99.90;;;;;;4989861;28;20026;-58
2023/07/17 07:45:32;;;;;;;5.00;1.92;;;19.10;99.90;;;;;;5006324;28;20049;-60
2023/07/17 07:47:58;;;;;;;8.88;2.40;;;19.10;99.90;;;;;;4997988;28;20022;-60
2023/07/17 07:50:24;;;;;;;4.10;1.98;;;19.10;99.90;;;;;;4999262;28;20029;-60
2023/07/17 07:52:50;;;;;;;8.88;2.67;;;19.10;99.90;;;;;;4999985;28;20038;-60
2023/07/17 07:55:15;;;;;;;8.05;2.10;;;19.00;99.90;;;;;;5002804;28;20041;-59
2023/07/17 07:57:41;;;;;;;4.00;2.05;;;19.10;99.90;;;;;;4999174;28;20164;-60
2023/07/17 08:00:07;;;;;;;5.20;2.03;;;19.20;99.90;;;;;;4989117;28;20029;-59
2023/07/17 08:02:38;;;;;;;6.82;2.03;;;19.30;99.90;;;;;;4998091;28;20542;-59
2023/07/17 08:05:04;;;;;;;4.65;1.70;;;19.30;99.90;;;;;;4998814;28;20176;-59
2023/07/17 08:07:30;;;;;;;5.20;1.90;;;19.30;99.90;;;;;;4991614;28;20157;-60
2023/07/17 08:09:55;;;;;;;4.03;1.83;;;19.50;99.90;;;;;;4999249;28;20121;-60
2023/07/17 08:12:21;;;;;;;5.55;1.90;;;19.50;99.90;;;;;;4995737;28;20105;-57
2023/07/17 08:14:48;;;;;;;5.75;1.95;;;19.70;99.90;;;;;;5000261;28;20038;-59
2023/07/17 08:17:14;;;;;;;4.97;2.40;;;19.70;99.90;;;;;;4997500;28;20073;-59
2023/07/17 08:19:39;;;;;;;53.40;27.50;;;19.70;99.90;;;;;;4994648;28;20048;-60
2023/07/17 08:22:05;;;;;;;15.55;6.95;;;19.80;99.90;;;;;;4990973;28;20096;-60
2023/07/17 08:24:31;;;;;;;8.63;4.30;;;19.80;99.90;;;;;;4988837;28;20068;-60
2023/07/17 08:26:57;;;;;;;25.35;13.88;;;19.90;99.90;;;;;;4990660;28;20040;-59
2023/07/17 08:29:22;;;;;;;6.80;3.53;;;20.00;99.90;;;;;;4989025;28;20542;-60
2023/07/17 08:31:48;;;;;;;16.95;7.57;;;20.00;99.90;;;;;;4993384;28;20026;-60
2023/07/17 08:34:14;;;;;;;6.80;2.38;;;20.10;99.90;;;;;;4988571;28;20066;-58
2023/07/17 08:36:39;;;;;;;9.50;3.95;;;20.00;99.90;;;;;;4990653;28;20031;-60
2023/07/17 08:39:05;;;;;;;7.47;4.15;;;20.00;99.90;;;;;;4993964;28;20022;-60
2023/07/17 08:41:31;;;;;;;5.20;2.20;;;20.10;99.90;;;;;;5000292;28;20126;-59
2023/07/17 08:43:58;;;;;;;9.38;3.08;;;20.10;99.90;;;;;;4998564;28;20417;-60
2023/07/17 08:46:24;;;;;;;8.30;1.95;;;20.10;99.90;;;;;;4993498;28;20038;-59
2023/07/17 08:48:52;;;;;;;6.53;2.10;;;20.20;99.90;;;;;;4998821;28;20091;-59
2023/07/17 08:51:21;;;;;;;4.05;1.77;;;20.30;99.90;;;;;;4999191;28;20026;-60
2023/07/17 08:53:46;;;;;;;3.63;1.80;;;20.30;99.50;;;;;;4998494;28;20379;-60
2023/07/17 08:56:12;;;;;;;5.57;1.88;;;20.40;99.70;;;;;;4999153;28;20033;-53
2023/07/17 08:58:40;;;;;;;5.55;1.52;;;20.50;99.90;;;;;;4989184;28;20029;-60
2023/07/17 09:01:06;;;;;;;6.43;2.30;;;20.60;99.10;;;;;;4997733;28;20037;-57
2023/07/17 09:03:34;;;;;;;5.70;1.77;;;20.80;99.40;;;;;;4998667;28;20031;-58
2023/07/17 09:06:03;;;;;;;5.63;1.83;;;20.90;99.50;;;;;;4997841;28;20491;-60
2023/07/17 09:08:29;;;;;;;;;;;21.10;98.50;;;;;;4992986;28;20443;-59
2023/07/17 09:11:07;;;;;;;4.43;1.60;;;21.10;97.80;;;;;;4995928;28;19910;-59
2023/07/17 09:13:44;;;;;;;3.33;1.65;;;21.00;98.10;;;;;;5002759;28;20076;-57
2023/07/17 09:16:18;;;;;;;4.03;1.67;;;20.90;98.20;;;;;;4990234;28;20122;-60
2023/07/17 09:18:48;;;;;;;4.55;1.70;;;21.10;98.60;;;;;;4989366;28;20031;-57
2023/07/17 09:21:15;;;;;;;4.20;1.25;;;21.20;96.70;;;;;;4996859;28;20022;-59
2023/07/17 09:23:46;;;;;;;6.07;1.98;;;21.30;97.60;;;;;;4988974;28;20109;-59
2023/07/17 09:26:16;;;;;;;4.72;1.73;;;21.50;97.10;;;;;;4993305;28;20026;-59
2023/07/17 09:28:56;;;;;;;8.30;2.75;;;21.60;96.90;;;;;;4997371;28;20127;-57
2023/07/17 09:31:30;;;;;;;5.75;3.08;;;21.70;96.80;;;;;;4988307;28;20505;-58
2023/07/17 09:33:59;;;;;;;12.38;4.93;;;21.70;96.20;;;;;;4991957;28;20065;-56
2023/07/17 09:36:24;;;;;;;8.20;4.60;;;21.70;96.20;;;;;;4990335;28;20080;-57
2023/07/17 09:38:52;;;;;;;5.68;2.50;;;21.60;95.70;;;;;;4988476;28;20058;-57
2023/07/17 09:41:26;;;;;;;10.02;4.40;;;21.40;95.60;;;;;;4991801;28;20118;-57
2023/07/17 09:44:01;;;;;;;6.88;2.22;;;21.20;96.30;;;;;;4989238;28;20661;-57
2023/07/17 09:46:27;;;;;;;9.73;3.28;;;21.20;96.20;;;;;;4996390;28;20038;-59
2023/07/17 09:48:54;;;;;;;5.95;2.50;;;21.50;95.80;;;;;;4991204;28;20038;-59
2023/07/17 09:51:20;;;;;;;4.50;2.05;;;21.60;94.70;;;;;;5000331;28;20343;-59
2023/07/17 09:53:47;;;;;;;5.60;2.10;;;21.70;93.60;;;;;;4995072;28;20065;-57
2023/07/17 09:56:15;;;;;;;7.70;3.72;;;21.60;94.20;;;;;;4991346;28;20034;-57
2023/07/17 09:58:45;;;;;;;7.55;3.28;;;21.50;94.20;;;;;;4985823;28;20126;-55
2023/07/17 10:01:17;;;;;;;7.78;4.22;;;21.40;94.80;;;;;;5002572;28;20036;-50
2023/07/17 10:03:47;;;;;;;7.95;4.13;;;21.50;95.90;;;;;;5003430;28;20122;-55
2023/07/17 10:06:15;;;;;;;2.90;1.58;;;21.80;95.20;;;;;;4993533;28;20664;-58
2023/07/17 10:09:01;;;;;;;4.82;1.88;;;22.10;94.50;;;;;;4992461;28;20324;-59
2023/07/17 10:11:27;;;;;;;3.47;1.50;;;22.20;93.20;;;;;;5000004;28;20220;-59
2023/07/17 10:13:55;;;;;;;6.18;1.73;;;22.10;93.30;;;;;;4999049;28;20045;-59
2023/07/17 10:16:21;;;;;;;4.55;1.48;;;22.20;93.40;;;;;;4999337;28;20045;-57
2023/07/17 10:18:48;;;;;;;4.55;2.20;;;22.10;93.00;;;;;;4986714;28;20062;-59
2023/07/17 10:21:15;;;;;;;4.88;1.90;;;21.90;93.10;;;;;;4991189;28;20036;-58
2023/07/17 10:23:43;;;;;;;4.55;1.80;;;21.80;93.50;;;;;;4999854;28;20031;-55
2023/07/17 10:26:11;;;;;;;3.33;1.60;;;21.90;93.80;;;;;;5003656;28;20158;-55
2023/07/17 10:28:37;;;;;;;7.10;2.42;;;22.10;93.90;;;;;;4993217;28;20045;-58
2023/07/17 10:31:23;;;;;;;5.30;1.90;;;22.20;93.00;;;;;;4997705;28;20038;-59
2023/07/17 10:33:55;;;;;;;4.43;1.70;;;22.20;93.10;;;;;;4963613;28;20081;-57
2023/07/17 10:36:42;;;;;;;5.47;2.03;;;22.20;93.60;;;;;;4995234;28;20443;-56
2023/07/17 10:39:11;;;;;;;4.60;1.60;;;22.40;93.50;;;;;;4987159;28;20454;-58
2023/07/17 10:41:37;;;;;;;4.50;1.80;;;22.50;92.40;;;;;;4988446;28;20042;-59
2023/07/17 10:44:03;;;;;;;5.07;2.00;;;22.50;92.40;;;;;;4993266;28;20025;-58
2023/07/17 10:46:32;;;;;;;4.10;2.50;;;22.40;92.80;;;;;;4996064;28;20498;-58
2023/07/17 10:49:14;;;;;;;3.22;1.60;;;22.40;93.00;;;;;;4995163;28;20026;-58
2023/07/17 10:51:44;;;;;;;5.95;2.05;;;22.30;93.00;;;;;;4990044;28;20034;-56
2023/07/17 10:54:10;;;;;;;5.63;1.80;;;22.00;93.00;;;;;;4988485;28;20057;-58
2023/07/17 10:56:37;;;;;;;4.88;1.90;;;22.00;93.20;;;;;;4992369;28;20128;-57
2023/07/17 10:59:04;;;;;;;5.00;1.88;;;21.90;93.40;;;;;;4997942;28;20035;-57
2023/07/17 11:01:32;;;;;;;4.97;2.10;;;21.70;93.60;;;;;;4994145;28;20591;-54
2023/07/17 11:03:58;;;;;;;6.35;1.98;;;21.60;94.10;;;;;;4991504;28;20026;-58
2023/07/17 11:06:27;;;;;;;5.07;1.73;;;21.50;94.40;;;;;;4992491;28;20026;-56
2023/07/17 11:08:56;;;;;;;4.28;1.90;;;21.60;94.60;;;;;;4989175;28;20034;-57
2023/07/17 11:11:22;;;;;;;5.18;2.45;;;21.60;93.50;;;;;;4991568;28;20042;-58
2023/07/17 11:13:49;;;;;;;3.53;1.67;;;21.70;93.80;;;;;;4993345;28;20052;-57
2023/07/17 11:16:16;;;;;;;6.10;1.90;;;21.90;94.40;;;;;;4992773;28;20034;-57
2023/07/17 11:18:55;;;;;;;4.65;2.30;;;22.10;93.70;;;;;;4995285;28;20443;-57
2023/07/17 11:21:23;;;;;;;3.53;2.10;;;22.30;93.80;;;;;;5005789;28;20498;-59
2023/07/17 11:23:50;;;;;;;5.80;2.20;;;22.30;93.50;;;;;;5005035;28;20034;-57
2023/07/17 11:26:18;;;;;;;5.75;2.13;;;22.20;93.50;;;;;;4997989;28;20072;-59
2023/07/17 11:28:48;;;;;;;4.80;2.03;;;22.20;93.40;;;;;;4999253;28;20096;-59
2023/07/17 11:31:24;;;;;;;4.38;2.30;;;22.30;93.00;;;;;;5004381;28;20168;-59
2023/07/17 11:34:04;;;;;;;5.53;2.05;;;22.50;93.30;;;;;;4993549;28;20026;-58
2023/07/17 11:36:38;;;;;;;4.32;1.70;;;22.60;91.60;;;;;;4999542;28;20030;-59
2023/07/17 11:39:18;;;;;;;4.40;1.98;;;22.50;91.40;;;;;;4995173;28;20026;-59
2023/07/17 11:41:49;;;;;;;6.20;2.45;;;22.60;92.00;;;;;;4979388;28;20026;-59
2023/07/17 11:44:23;;;;;;;6.85;2.35;;;22.60;91.60;;;;;;4996959;28;20018;-57
2023/07/17 11:46:57;;;;;;;6.60;2.50;;;22.50;92.10;;;;;;4980955;28;20092;-59
2023/07/17 11:49:25;;;;;;;4.75;2.20;;;22.40;91.80;;;;;;4997206;28;20034;-59
2023/07/17 11:51:51;;;;;;;4.10;1.95;;;22.30;91.90;;;;;;4989993;28;20432;-58
2023/07/17 11:54:17;;;;;;;5.50;2.30;;;22.20;92.20;;;;;;4993305;28;20121;-59
2023/07/17 11:56:45;;;;;;;6.15;2.50;;;22.10;92.10;;;;;;5001275;28;20126;-59
2023/07/17 11:59:21;;;;;;;9.50;2.58;;;22.10;92.20;;;;;;4998114;28;20041;-59
2023/07/17 12:01:48;;;;;;;6.10;2.33;;;22.20;92.50;;;;;;4999815;28;20096;-59
2023/07/17 12:04:28;;;;;;;5.82;2.60;;;22.20;92.30;;;;;;5004510;28;20133;-59
2023/07/17 12:06:58;;;;;;;11.27;5.05;;;22.20;92.40;;;;;;5003746;28;20054;-59
2023/07/17 12:09:24;;;;;;;7.35;3.58;;;22.20;92.20;;;;;;4993679;28;20481;-59
2023/07/17 12:11:50;;;;;;;4.95;2.03;;;22.20;93.30;;;;;;4999082;28;20134;-58
2023/07/17 12:14:16;;;;;;;7.05;2.60;;;22.30;92.60;;;;;;5007382;28;20481;-57
2023/07/17 12:16:43;;;;;;;4.38;2.00;;;22.50;92.70;;;;;;4994119;28;20026;-59
2023/07/17 12:19:09;;;;;;;4.60;2.33;;;22.70;92.00;;;;;;4995544;28;20042;-57
2023/07/17 12:21:35;;;;;;;4.07;1.75;;;23.00;90.40;;;;;;4996976;28;20136;-59
2023/07/17 12:24:00;;;;;;;4.70;2.00;;;23.10;89.90;;;;;;5003492;28;20050;-58
2023/07/17 12:26:26;;;;;;;4.22;1.98;;;23.20;89.00;;;;;;5004588;28;20183;-59
2023/07/17 12:28:51;;;;;;;4.18;2.33;;;23.30;88.70;;;;;;4999280;28;20056;-59
2023/07/17 12:31:17;;;;;;;4.47;1.98;;;23.30;88.20;;;;;;4989569;28;20459;-59
2023/07/17 12:33:43;;;;;;;5.10;1.90;;;23.20;88.00;;;;;;4997252;28;20049;-58
2023/07/17 12:36:09;;;;;;;5.65;2.45;;;23.00;89.80;;;;;;5003553;28;20044;-57
2023/07/17 12:38:35;;;;;;;4.50;1.73;;;23.00;89.40;;;;;;4991291;28;20037;-59
2023/07/17 12:41:00;;;;;;;4.63;2.20;;;23.00;88.60;;;;;;4995199;28;20478;-59
2023/07/17 12:43:26;;;;;;;5.88;2.20;;;23.00;88.80;;;;;;4994883;28;20069;-59
2023/07/17 12:45:52;;;;;;;6.72;2.22;;;23.10;89.70;;;;;;4997234;28;20026;-59
2023/07/17 12:48:17;;;;;;;7.88;2.00;;;23.20;89.70;;;;;;5000738;28;20112;-58